Time;durP1;ratioP1;P1;durP2;ratioP2;P2;SDS_P1;SDS_P2;PMS_P1;PMS_P2;Temp;Humidity;BMP_temperature;BMP_pressure;BME280_temperature;BME280_humidity;BME280_pressure;Samples;Min_cycle;Max_cycle;Signal;HPM_P1;HPM_P2
2023/05/30 00:02:15;;;;;;;31.63;24.20;;;8.90;99.90;;;;;;4970059;28;20591;-76
2023/05/30 00:04:42;;;;;;;34.47;25.58;;;8.90;99.90;;;;;;4981772;28;20082;-76
2023/05/30 00:07:10;;;;;;;28.00;23.25;;;8.80;99.90;;;;;;4970967;28;20101;-76
2023/05/30 00:09:36;;;;;;;27.65;23.08;;;8.80;99.90;;;;;;4979543;28;20264;-77
2023/05/30 00:12:04;;;;;;;30.95;24.52;;;8.90;99.90;;;;;;4971964;28;20054;-75
2023/05/30 00:14:31;;;;;;;33.72;23.17;;;8.80;99.90;;;;;;4968605;28;20034;-77
2023/05/30 00:16:58;;;;;;;28.58;22.75;;;8.60;99.90;;;;;;4973970;28;20076;-77
2023/05/30 00:19:24;;;;;;;27.95;23.13;;;8.70;99.90;;;;;;4981161;28;20266;-75
2023/05/30 00:21:52;;;;;;;30.10;22.70;;;8.60;99.90;;;;;;4970784;28;20038;-75
2023/05/30 00:24:19;;;;;;;28.30;22.08;;;8.60;99.90;;;;;;4971388;28;20371;-75
2023/05/30 00:26:46;;;;;;;24.92;20.90;;;8.60;99.90;;;;;;4983098;28;20078;-75
2023/05/30 00:29:12;;;;;;;33.70;22.27;;;8.50;99.90;;;;;;4970153;28;20039;-75
2023/05/30 00:31:39;;;;;;;32.70;23.38;;;8.40;99.90;;;;;;4959518;28;20047;-75
2023/05/30 00:34:06;;;;;;;32.75;23.90;;;8.40;99.90;;;;;;4976997;28;20475;-77
2023/05/30 00:36:33;;;;;;;34.05;22.83;;;8.30;99.90;;;;;;4980267;28;20101;-77
2023/05/30 00:39:00;;;;;;;32.90;21.90;;;8.40;99.90;;;;;;4977189;28;20084;-76
2023/05/30 00:41:27;;;;;;;36.58;22.15;;;8.50;99.90;;;;;;4971465;28;20492;-75
2023/05/30 00:43:53;;;;;;;34.03;22.50;;;8.40;99.90;;;;;;4970789;28;20536;-77
2023/05/30 00:46:23;;;;;;;32.17;22.98;;;8.40;99.90;;;;;;4974234;28;20069;-75
2023/05/30 00:48:52;;;;;;;40.83;23.10;;;8.30;99.90;;;;;;4966851;28;20062;-75
2023/05/30 00:51:20;;;;;;;47.33;25.02;;;8.20;99.90;;;;;;4973733;28;20061;-75
2023/05/30 00:53:47;;;;;;;38.55;23.77;;;8.20;99.90;;;;;;4971453;28;21907;-75
2023/05/30 00:56:15;;;;;;;33.72;25.55;;;8.10;99.90;;;;;;4971924;28;20050;-75
2023/05/30 00:58:42;;;;;;;38.90;25.45;;;8.10;99.90;;;;;;4967287;28;20493;-75
2023/05/30 01:01:09;;;;;;;33.17;25.73;;;8.10;99.90;;;;;;4970272;28;20050;-75
2023/05/30 01:03:37;;;;;;;42.85;26.25;;;8.20;99.90;;;;;;4962283;28;20129;-75
2023/05/30 01:06:06;;;;;;;43.50;26.58;;;8.10;99.90;;;;;;4974557;28;20579;-75
2023/05/30 01:08:33;;;;;;;43.55;26.02;;;8.10;99.90;;;;;;4976229;28;20089;-75
2023/05/30 01:11:24;;;;;;;36.83;25.85;;;8.00;99.90;;;;;;4974462;28;20046;-75
2023/05/30 01:14:14;;;;;;;41.50;26.25;;;8.00;99.90;;;;;;4967665;28;20043;-76
2023/05/30 01:16:46;;;;;;;34.25;24.80;;;8.10;99.90;;;;;;4964704;28;20051;-76
2023/05/30 01:19:23;;;;;;;37.83;26.05;;;8.10;99.90;;;;;;4972439;28;20255;-75
2023/05/30 01:22:06;;;;;;;41.08;25.75;;;8.00;99.90;;;;;;4966987;28;20042;-77
2023/05/30 01:24:44;;;;;;;42.40;24.80;;;8.10;99.90;;;;;;4968331;28;20038;-75
2023/05/30 01:27:35;;;;;;;39.83;24.67;;;8.00;99.90;;;;;;4971519;28;20504;-75
2023/05/30 01:30:03;;;;;;;39.58;26.48;;;7.90;99.90;;;;;;4970397;28;20101;-76
2023/05/30 01:32:30;;;;;;;48.25;25.67;;;7.90;99.90;;;;;;4978438;28;20043;-76
2023/05/30 01:34:57;;;;;;;39.05;27.50;;;7.90;99.90;;;;;;4986475;28;20048;-75
2023/05/30 01:37:24;;;;;;;43.00;26.17;;;8.00;99.90;;;;;;4983439;28;20058;-75
2023/05/30 01:39:51;;;;;;;34.90;26.08;;;7.90;99.90;;;;;;4966149;28;20659;-75
2023/05/30 01:42:25;;;;;;;37.13;27.00;;;7.90;99.90;;;;;;4982266;28;20145;-75
2023/05/30 01:45:12;;;;;;;39.90;27.40;;;7.80;99.90;;;;;;4961669;28;20476;-76
2023/05/30 01:47:54;;;;;;;50.78;27.65;;;7.90;99.90;;;;;;4977745;28;20051;-75
2023/05/30 01:50:26;;;;;;;45.08;27.33;;;7.90;99.90;;;;;;4972156;28;20508;-76
2023/05/30 01:52:59;;;;;;;43.30;28.17;;;7.80;99.90;;;;;;4975172;28;20050;-76
2023/05/30 01:55:29;;;;;;;47.40;28.60;;;7.70;99.90;;;;;;4986538;28;20046;-75
2023/05/30 01:57:57;;;;;;;47.05;28.65;;;7.70;99.90;;;;;;4971695;28;20042;-75
2023/05/30 02:00:27;;;;;;;43.70;29.33;;;7.70;99.90;;;;;;4971128;28;20049;-75
2023/05/30 02:02:54;;;;;;;47.03;29.38;;;7.70;99.90;;;;;;4966631;28;20086;-75
2023/05/30 02:05:21;;;;;;;41.95;27.52;;;7.60;99.90;;;;;;4973179;28;20465;-75
2023/05/30 02:07:48;;;;;;;46.63;27.65;;;7.70;99.90;;;;;;4976416;28;21012;-75
2023/05/30 02:10:16;;;;;;;39.28;25.80;;;7.60;99.90;;;;;;4970625;28;20054;-76
2023/05/30 02:12:46;;;;;;;47.35;29.15;;;7.50;99.90;;;;;;4966026;28;20089;-75
2023/05/30 02:15:13;;;;;;;50.03;27.58;;;7.40;99.90;;;;;;4964739;28;20126;-75
2023/05/30 02:17:41;;;;;;;40.28;26.58;;;7.30;99.90;;;;;;4964533;28;20062;-75
2023/05/30 02:20:09;;;;;;;46.08;26.90;;;7.40;99.90;;;;;;4980014;28;20542;-75
2023/05/30 02:22:36;;;;;;;38.08;27.35;;;7.60;99.90;;;;;;4958564;28;20629;-76
2023/05/30 02:25:03;;;;;;;40.75;26.70;;;7.50;99.90;;;;;;4956501;28;20118;-75
2023/05/30 02:27:29;;;;;;;56.00;28.10;;;7.30;99.90;;;;;;4965666;28;20068;-75
2023/05/30 02:29:56;;;;;;;44.38;26.73;;;7.20;99.90;;;;;;4966295;28;20043;-75
2023/05/30 02:32:23;;;;;;;36.22;26.35;;;7.30;99.90;;;;;;4984210;28;20437;-75
2023/05/30 02:34:51;;;;;;;49.50;27.40;;;7.20;99.90;;;;;;4967849;28;20451;-75
2023/05/30 02:37:18;;;;;;;44.05;25.55;;;7.10;99.90;;;;;;4980460;28;20047;-75
2023/05/30 02:39:45;;;;;;;32.95;24.17;;;7.10;99.90;;;;;;4943464;28;20042;-75
2023/05/30 02:42:12;;;;;;;44.80;24.73;;;7.00;99.90;;;;;;4972077;28;20529;-75
2023/05/30 02:44:38;;;;;;;33.85;23.67;;;6.90;99.90;;;;;;4974141;28;20694;-75
2023/05/30 02:47:06;;;;;;;42.58;25.25;;;6.90;99.90;;;;;;4968189;28;20555;-75
2023/05/30 02:49:33;;;;;;;34.10;23.02;;;6.80;99.90;;;;;;4984468;28;20061;-75
2023/05/30 02:51:59;;;;;;;31.35;22.08;;;6.70;99.90;;;;;;4967475;28;20046;-75
2023/05/30 02:54:38;;;;;;;33.33;22.48;;;6.70;99.90;;;;;;4959492;28;20516;-75
2023/05/30 02:57:25;;;;;;;30.42;22.40;;;6.70;99.90;;;;;;4947800;28;20039;-75
2023/05/30 03:00:20;;;;;;;36.63;24.00;;;6.60;99.90;;;;;;4963812;28;20137;-76
2023/05/30 03:02:59;;;;;;;26.88;23.60;;;6.50;99.90;;;;;;4984230;28;20046;-76
2023/05/30 03:05:26;;;;;;;29.63;22.95;;;6.40;99.90;;;;;;4969117;28;20058;-75
2023/05/30 03:07:53;;;;;;;33.72;21.02;;;6.40;99.90;;;;;;4942620;28;20050;-76
2023/05/30 03:10:19;;;;;;;30.50;20.88;;;6.50;99.90;;;;;;4980368;28;20058;-75
2023/05/30 03:12:49;;;;;;;28.77;19.48;;;6.60;99.90;;;;;;4967444;28;20046;-75
2023/05/30 03:15:16;;;;;;;28.92;20.10;;;6.70;99.90;;;;;;4970321;28;20196;-76
2023/05/30 03:17:44;;;;;;;31.10;19.20;;;6.60;99.90;;;;;;4956024;28;20665;-76
2023/05/30 03:20:12;;;;;;;27.70;19.05;;;6.60;99.90;;;;;;4951315;28;20124;-75
2023/05/30 03:22:41;;;;;;;25.95;19.90;;;6.70;99.90;;;;;;4976795;28;20145;-75
2023/05/30 03:25:08;;;;;;;40.72;19.33;;;6.70;99.90;;;;;;4969085;28;20054;-76
2023/05/30 03:27:36;;;;;;;27.98;19.30;;;6.70;99.90;;;;;;4984323;28;20077;-75
2023/05/30 03:30:04;;;;;;;28.30;19.60;;;6.90;99.90;;;;;;4973867;28;20030;-75
2023/05/30 03:32:34;;;;;;;33.85;18.98;;;6.80;99.90;;;;;;4948366;28;20057;-75
2023/05/30 03:35:01;;;;;;;23.45;17.52;;;7.00;99.90;;;;;;4970403;28;20587;-75
2023/05/30 03:37:29;;;;;;;34.03;20.10;;;7.20;99.90;;;;;;4981103;28;20086;-76
2023/05/30 03:39:56;;;;;;;24.55;18.85;;;7.10;99.90;;;;;;4968381;28;20553;-75
2023/05/30 03:42:23;;;;;;;32.53;20.13;;;7.20;99.90;;;;;;4971197;28;20596;-75
2023/05/30 03:44:50;;;;;;;29.73;21.25;;;7.30;99.90;;;;;;4966067;28;20049;-75
2023/05/30 03:47:17;;;;;;;29.52;20.35;;;7.40;99.90;;;;;;4986272;28;20104;-77
2023/05/30 03:49:43;;;;;;;32.55;21.35;;;7.40;99.90;;;;;;4969210;28;20642;-77
2023/05/30 03:52:10;;;;;;;43.35;25.33;;;7.60;99.90;;;;;;4974022;28;20130;-76
2023/05/30 03:54:37;;;;;;;52.85;25.90;;;7.80;99.90;;;;;;4965608;28;20039;-75
2023/05/30 03:57:05;;;;;;;44.42;25.60;;;7.80;99.90;;;;;;4955957;28;20300;-75
2023/05/30 03:59:32;;;;;;;47.40;25.75;;;7.90;99.90;;;;;;4965092;28;20035;-75
2023/05/30 04:01:59;;;;;;;50.20;24.83;;;8.10;99.90;;;;;;4968965;28;20575;-75
2023/05/30 04:04:26;;;;;;;42.60;25.25;;;8.20;99.90;;;;;;4971572;28;20178;-75
2023/05/30 04:06:53;;;;;;;53.17;26.23;;;8.30;99.90;;;;;;4967559;28;20046;-75
2023/05/30 04:09:21;;;;;;;48.30;27.50;;;8.40;99.90;;;;;;4970642;28;20047;-77
2023/05/30 04:11:47;;;;;;;40.00;24.88;;;8.30;99.90;;;;;;4967432;28;20042;-76
2023/05/30 04:14:14;;;;;;;42.72;26.58;;;8.30;99.90;;;;;;4950823;28;20057;-76
2023/05/30 04:16:41;;;;;;;50.53;28.55;;;8.30;99.90;;;;;;4945325;28;20046;-76
2023/05/30 04:19:08;;;;;;;54.42;29.08;;;8.40;99.90;;;;;;4970370;28;20047;-76
2023/05/30 04:21:35;;;;;;;40.92;26.95;;;8.30;99.90;;;;;;4977884;28;20363;-76
2023/05/30 04:24:03;;;;;;;51.28;26.85;;;8.40;99.90;;;;;;4969464;28;20680;-76
2023/05/30 04:26:31;;;;;;;41.55;27.55;;;8.50;99.90;;;;;;4971559;28;20129;-76
2023/05/30 04:29:00;;;;;;;51.15;26.85;;;8.50;99.90;;;;;;4957432;28;20043;-76
2023/05/30 04:31:28;;;;;;;42.92;27.83;;;8.50;99.90;;;;;;4956394;28;20230;-76
2023/05/30 04:33:55;;;;;;;46.47;28.00;;;8.50;99.90;;;;;;4966122;28;20512;-76
2023/05/30 04:36:23;;;;;;;52.00;28.10;;;8.50;99.90;;;;;;4956927;28;20045;-76
2023/05/30 04:38:52;;;;;;;46.00;28.13;;;8.40;99.90;;;;;;4961857;28;20493;-76
2023/05/30 04:41:21;;;;;;;44.33;26.45;;;8.50;99.90;;;;;;4968807;28;20131;-77
2023/05/30 04:43:52;;;;;;;44.22;30.08;;;8.50;99.90;;;;;;4981215;28;20131;-76
2023/05/30 04:46:23;;;;;;;44.67;29.95;;;8.70;99.90;;;;;;4952690;28;20101;-76
2023/05/30 04:48:55;;;;;;;44.10;30.55;;;8.60;99.90;;;;;;4975706;28;20070;-76
2023/05/30 04:51:26;;;;;;;53.17;31.05;;;8.60;99.90;;;;;;4972316;28;20058;-76
2023/05/30 04:53:53;;;;;;;48.28;29.33;;;8.70;99.90;;;;;;4968012;28;20050;-76
2023/05/30 04:56:20;;;;;;;49.97;30.55;;;8.70;99.90;;;;;;4956604;28;20042;-76
2023/05/30 04:58:48;;;;;;;45.88;30.33;;;8.80;99.90;;;;;;4960533;28;20460;-77
2023/05/30 05:01:18;;;;;;;47.25;32.72;;;8.80;99.90;;;;;;4970008;28;20077;-76
2023/05/30 05:03:46;;;;;;;41.78;30.25;;;8.70;99.90;;;;;;4964375;28;20055;-76
2023/05/30 05:06:13;;;;;;;45.38;30.50;;;8.80;99.90;;;;;;4963954;28;20054;-76
2023/05/30 05:08:41;;;;;;;44.28;30.88;;;8.80;99.90;;;;;;4967447;28;20055;-76
2023/05/30 05:11:08;;;;;;;53.22;29.33;;;8.80;99.90;;;;;;4974338;28;20042;-77
2023/05/30 05:13:35;;;;;;;46.17;27.48;;;8.90;99.90;;;;;;4955364;28;20069;-76
2023/05/30 05:16:04;;;;;;;57.03;28.17;;;8.80;99.90;;;;;;4967194;28;20058;-76
2023/05/30 05:18:31;;;;;;;54.70;27.15;;;8.80;99.90;;;;;;4970972;28;20038;-76
2023/05/30 05:20:57;;;;;;;41.70;27.27;;;8.90;99.90;;;;;;4965823;28;20628;-77
2023/05/30 05:23:27;;;;;;;62.35;31.52;;;8.90;99.90;;;;;;4971456;28;20517;-76
2023/05/30 05:25:54;;;;;;;45.78;30.92;;;9.10;99.90;;;;;;4967841;28;20505;-76
2023/05/30 05:28:21;;;;;;;44.00;29.45;;;9.20;99.90;;;;;;4952335;28;20050;-76
2023/05/30 05:30:48;;;;;;;35.88;26.85;;;9.10;99.90;;;;;;4963314;28;20489;-76
2023/05/30 05:33:15;;;;;;;38.60;27.50;;;9.20;99.90;;;;;;4968795;28;20042;-76
2023/05/30 05:35:45;;;;;;;42.33;28.13;;;9.20;99.90;;;;;;4967098;28;20051;-76
2023/05/30 05:38:13;;;;;;;37.35;27.75;;;9.20;99.90;;;;;;4970154;28;20038;-75
2023/05/30 05:40:40;;;;;;;42.95;28.15;;;9.20;99.90;;;;;;4982963;28;20536;-75
2023/05/30 05:43:07;;;;;;;35.75;27.63;;;9.30;99.90;;;;;;4965702;28;20050;-75
2023/05/30 05:45:35;;;;;;;51.85;28.85;;;9.40;99.90;;;;;;4953284;28;20116;-75
2023/05/30 05:48:01;;;;;;;46.80;29.55;;;9.50;99.90;;;;;;4970713;28;20046;-75
2023/05/30 05:50:28;;;;;;;39.97;26.58;;;9.50;99.90;;;;;;4984444;28;20038;-75
2023/05/30 05:52:55;;;;;;;40.25;26.70;;;9.40;99.90;;;;;;4962019;28;20042;-76
2023/05/30 05:55:22;;;;;;;40.20;25.75;;;9.20;99.90;;;;;;4968503;28;20145;-75
2023/05/30 05:57:49;;;;;;;41.58;26.73;;;9.10;99.90;;;;;;4959754;28;20071;-75
2023/05/30 06:00:16;;;;;;;42.08;25.80;;;9.20;99.90;;;;;;4964485;28;20124;-75
2023/05/30 06:02:43;;;;;;;41.90;24.63;;;9.30;99.90;;;;;;4984117;28;20101;-75
2023/05/30 06:05:10;;;;;;;33.33;24.15;;;9.30;99.90;;;;;;4967533;28;20035;-75
2023/05/30 06:07:36;;;;;;;39.95;24.58;;;9.10;99.90;;;;;;4967710;28;20832;-76
2023/05/30 06:10:03;;;;;;;34.78;24.67;;;9.40;99.90;;;;;;4962018;28;20350;-76
2023/05/30 06:12:30;;;;;;;41.45;25.65;;;9.60;99.90;;;;;;4965904;28;20093;-76
2023/05/30 06:14:57;;;;;;;33.95;23.92;;;9.50;99.90;;;;;;4966491;28;20101;-75
2023/05/30 06:17:23;;;;;;;29.48;24.70;;;9.70;99.90;;;;;;4967819;28;20062;-76
2023/05/30 06:19:50;;;;;;;34.97;26.27;;;9.80;99.90;;;;;;4964971;28;20101;-76
2023/05/30 06:22:18;;;;;;;34.17;25.35;;;9.80;99.90;;;;;;4981787;28;20109;-75
2023/05/30 06:24:46;;;;;;;34.13;24.80;;;9.90;99.90;;;;;;4956503;28;20082;-75
2023/05/30 06:27:13;;;;;;;39.15;25.75;;;10.00;99.90;;;;;;4965488;28;20074;-77
2023/05/30 06:29:41;;;;;;;30.90;24.73;;;10.00;99.90;;;;;;4960166;28;20047;-75
2023/05/30 06:32:08;;;;;;;33.25;25.27;;;10.00;99.90;;;;;;4968169;28;20100;-74
2023/05/30 06:34:45;;;;;;;35.35;27.80;;;10.10;99.90;;;;;;4958060;28;20049;-75
2023/05/30 06:37:13;;;;;;;31.42;26.38;;;10.20;99.90;;;;;;4964613;28;20042;-75
2023/05/30 06:39:40;;;;;;;39.33;28.05;;;10.10;99.90;;;;;;4968771;28;20069;-75
2023/05/30 06:42:08;;;;;;;33.05;27.27;;;10.20;99.90;;;;;;4963870;28;21073;-74
2023/05/30 06:44:42;;;;;;;33.35;26.92;;;10.10;99.90;;;;;;4978163;28;20038;-75
2023/05/30 06:47:09;;;;;;;32.42;25.17;;;10.00;99.90;;;;;;4966945;28;20333;-75
2023/05/30 06:49:36;;;;;;;38.88;24.33;;;10.20;99.90;;;;;;4968922;28;20046;-76
2023/05/30 06:52:03;;;;;;;33.95;24.83;;;10.10;99.90;;;;;;4950253;28;20119;-75
2023/05/30 06:54:31;;;;;;;35.42;25.35;;;10.20;99.90;;;;;;4967128;28;20045;-75
2023/05/30 06:57:02;;;;;;;40.03;26.73;;;10.30;99.90;;;;;;4960892;28;20081;-75
2023/05/30 06:59:30;;;;;;;26.98;24.27;;;10.30;99.90;;;;;;4965999;28;20128;-75
2023/05/30 07:01:56;;;;;;;35.45;26.08;;;10.30;99.90;;;;;;4964782;28;20148;-75
2023/05/30 07:04:24;;;;;;;29.15;25.75;;;10.50;99.90;;;;;;4966148;28;20208;-76
2023/05/30 07:06:51;;;;;;;29.40;26.13;;;10.60;99.90;;;;;;4961452;28;20062;-76
2023/05/30 07:09:17;;;;;;;34.00;26.42;;;10.50;99.90;;;;;;4968943;28;20402;-75
2023/05/30 07:11:44;;;;;;;28.92;25.80;;;10.60;99.90;;;;;;4984378;28;20054;-75
2023/05/30 07:14:11;;;;;;;35.13;27.48;;;10.70;99.90;;;;;;4963118;28;20046;-75
2023/05/30 07:16:38;;;;;;;36.38;26.15;;;10.70;99.90;;;;;;4968680;28;20126;-75
2023/05/30 07:19:05;;;;;;;32.05;26.38;;;10.70;99.90;;;;;;4961015;28;20481;-75
2023/05/30 07:21:37;;;;;;;37.65;27.50;;;10.40;99.90;;;;;;4960956;28;20042;-75
2023/05/30 07:24:04;;;;;;;34.65;27.05;;;10.50;99.90;;;;;;4963593;28;20047;-75
2023/05/30 07:26:31;;;;;;;32.55;27.40;;;10.70;99.90;;;;;;4970105;28;20050;-75
2023/05/30 07:28:57;;;;;;;30.48;26.30;;;10.90;99.90;;;;;;4976161;28;20053;-75
2023/05/30 07:31:24;;;;;;;34.83;27.42;;;11.10;99.90;;;;;;4968324;28;20046;-75
2023/05/30 07:33:51;;;;;;;34.33;25.85;;;11.10;99.90;;;;;;4960117;28;20734;-76
2023/05/30 07:36:18;;;;;;;34.45;27.33;;;11.10;99.90;;;;;;4968471;28;20139;-75
2023/05/30 07:38:45;;;;;;;30.35;26.63;;;11.00;99.90;;;;;;4966357;28;20117;-75
2023/05/30 07:41:12;;;;;;;33.42;28.45;;;11.10;99.90;;;;;;4965396;28;20042;-75
2023/05/30 07:43:38;;;;;;;32.72;28.25;;;11.20;99.90;;;;;;4960787;28;20101;-75
2023/05/30 07:46:05;;;;;;;33.53;27.70;;;11.40;99.90;;;;;;4981601;28;20050;-75
2023/05/30 07:48:32;;;;;;;31.73;28.27;;;11.30;99.90;;;;;;4963871;28;20914;-75
2023/05/30 07:50:58;;;;;;;34.80;29.05;;;11.20;99.90;;;;;;4961916;28;20098;-76
2023/05/30 07:53:26;;;;;;;34.15;28.92;;;11.30;99.90;;;;;;4970945;28;20042;-75
2023/05/30 07:55:52;;;;;;;33.22;27.55;;;11.30;99.90;;;;;;4956696;28;20046;-75
2023/05/30 07:58:19;;;;;;;31.80;28.35;;;11.30;99.90;;;;;;4967684;28;20347;-75
2023/05/30 08:00:46;;;;;;;35.10;28.02;;;11.00;99.90;;;;;;4970726;28;20113;-74
2023/05/30 08:03:13;;;;;;;31.02;28.20;;;11.20;99.90;;;;;;4963711;28;20054;-75
2023/05/30 08:05:40;;;;;;;33.40;28.63;;;11.30;99.90;;;;;;4980842;28;20299;-75
2023/05/30 08:08:07;;;;;;;38.20;31.15;;;11.60;99.90;;;;;;4989842;28;20250;-75
2023/05/30 08:10:34;;;;;;;33.22;29.45;;;11.70;99.90;;;;;;4992292;28;20061;-75
2023/05/30 08:13:01;;;;;;;32.75;29.33;;;11.90;99.90;;;;;;4962931;28;20315;-74
2023/05/30 08:15:28;;;;;;;34.08;30.42;;;12.10;99.90;;;;;;4969107;28;20382;-75
2023/05/30 08:18:00;;;;;;;33.88;29.77;;;12.20;99.90;;;;;;4968942;28;20324;-75
2023/05/30 08:20:27;;;;;;;32.47;28.67;;;12.10;99.90;;;;;;4970022;28;20038;-75
2023/05/30 08:22:53;;;;;;;32.70;28.00;;;11.80;99.90;;;;;;4966449;28;20046;-75
2023/05/30 08:25:23;;;;;;;31.42;28.35;;;11.40;99.90;;;;;;4968618;28;20038;-75
2023/05/30 08:27:53;;;;;;;30.95;28.35;;;11.40;99.90;;;;;;4984586;28;20050;-75
2023/05/30 08:30:21;;;;;;;39.28;29.58;;;11.70;99.90;;;;;;4972989;28;20062;-76
2023/05/30 08:32:47;;;;;;;31.83;28.58;;;11.90;99.90;;;;;;4968949;28;20070;-76
2023/05/30 08:35:14;;;;;;;34.83;31.10;;;12.00;99.90;;;;;;4949904;28;20089;-77
2023/05/30 08:37:42;;;;;;;34.00;30.08;;;12.00;99.90;;;;;;4969322;28;20070;-76
2023/05/30 08:40:13;;;;;;;33.83;30.25;;;12.00;99.90;;;;;;4970314;28;20421;-76
2023/05/30 08:42:41;;;;;;;34.72;31.27;;;12.10;99.90;;;;;;4969793;28;20050;-76
2023/05/30 08:45:08;;;;;;;33.10;29.42;;;12.20;99.90;;;;;;4971548;28;20117;-76
2023/05/30 08:47:35;;;;;;;32.95;29.33;;;12.30;99.90;;;;;;4973740;28;20053;-76
2023/05/30 08:50:04;;;;;;;33.75;29.98;;;12.40;99.90;;;;;;4964147;28;20045;-76
2023/05/30 08:52:32;;;;;;;41.22;30.63;;;12.40;99.90;;;;;;4972845;28;20054;-76
2023/05/30 08:55:19;;;;;;;33.05;29.75;;;12.60;99.90;;;;;;4971905;28;20041;-74
2023/05/30 08:58:09;;;;;;;33.38;30.38;;;13.00;99.90;;;;;;4970756;28;20050;-77
2023/05/30 09:00:37;;;;;;;34.25;30.75;;;13.20;99.90;;;;;;4970803;28;20039;-76
2023/05/30 09:03:05;;;;;;;35.83;31.85;;;13.10;99.90;;;;;;4970775;28;20062;-76
2023/05/30 09:05:34;;;;;;;34.97;31.02;;;13.00;99.90;;;;;;4970013;28;20042;-75
2023/05/30 09:08:02;;;;;;;35.10;31.38;;;12.80;99.90;;;;;;4968351;28;20053;-76
2023/05/30 09:10:30;;;;;;;33.60;30.42;;;12.40;99.90;;;;;;4969021;28;20503;-74
2023/05/30 09:12:57;;;;;;;34.88;31.30;;;12.50;99.90;;;;;;4966037;28;20497;-75
2023/05/30 09:15:24;;;;;;;35.13;31.38;;;12.90;99.90;;;;;;4971017;28;20126;-74
2023/05/30 09:17:51;;;;;;;36.65;32.55;;;12.80;99.90;;;;;;4964750;28;20042;-75
2023/05/30 09:20:18;;;;;;;38.85;31.20;;;12.70;99.90;;;;;;4967019;28;20412;-74
2023/05/30 09:22:45;;;;;;;36.50;32.60;;;12.80;99.90;;;;;;4970489;28;20121;-77
2023/05/30 09:25:15;;;;;;;36.92;32.95;;;13.00;99.90;;;;;;4961254;28;20667;-77
2023/05/30 09:27:50;;;;;;;37.00;33.17;;;13.20;99.90;;;;;;4986337;28;20059;-76
2023/05/30 09:30:18;;;;;;;38.58;33.58;;;13.30;99.90;;;;;;4979529;28;20256;-76
2023/05/30 09:33:02;;;;;;;36.03;32.40;;;13.70;99.90;;;;;;4969083;28;20058;-76
2023/05/30 09:35:29;;;;;;;37.25;33.95;;;13.90;99.90;;;;;;4968580;28;20433;-76
2023/05/30 09:37:56;;;;;;;36.72;33.30;;;14.40;99.90;;;;;;4973638;28;20026;-75
2023/05/30 09:40:23;;;;;;;42.28;38.58;;;14.30;99.90;;;;;;4951489;28;20389;-75
2023/05/30 09:42:52;;;;;;;36.65;33.45;;;14.70;99.90;;;;;;4969906;28;20054;-77
2023/05/30 09:45:22;;;;;;;39.10;35.75;;;15.40;99.90;;;;;;4969025;28;20521;-75
2023/05/30 09:47:51;;;;;;;40.33;36.95;;;15.90;99.90;;;;;;4968121;28;20189;-76
2023/05/30 09:50:23;;;;;;;41.65;37.78;;;14.60;99.90;;;;;;4970042;28;20594;-75
2023/05/30 09:52:55;;;;;;;39.13;35.97;;;14.40;99.90;;;;;;4986750;28;20083;-75
2023/05/30 09:55:24;;;;;;;38.13;34.97;;;14.90;99.90;;;;;;4969143;28;20470;-74
2023/05/30 09:57:53;;;;;;;40.42;36.50;;;15.60;99.90;;;;;;4965500;28;20039;-77
2023/05/30 10:00:28;;;;;;;37.13;33.90;;;15.80;99.90;;;;;;4969504;28;20100;-74
2023/05/30 10:02:57;;;;;;;38.92;35.42;;;16.20;99.90;;;;;;4979821;28;20053;-75
2023/05/30 10:05:26;;;;;;;40.72;36.70;;;16.40;99.90;;;;;;4970003;28;20427;-75
2023/05/30 10:07:54;;;;;;;37.88;34.65;;;17.00;99.90;;;;;;4963729;28;20045;-74
2023/05/30 10:10:21;;;;;;;39.05;35.35;;;17.30;99.90;;;;;;4970457;28;20124;-75
2023/05/30 10:12:53;;;;;;;39.00;35.50;;;16.20;99.90;;;;;;4987254;28;20047;-74
2023/05/30 10:15:21;;;;;;;41.35;37.03;;;15.50;99.90;;;;;;4967960;28;20058;-77
2023/05/30 10:18:09;;;;;;;40.70;37.10;;;15.90;99.90;;;;;;4974769;28;20062;-74
2023/05/30 10:20:43;;;;;;;39.22;35.80;;;15.80;99.90;;;;;;4967611;28;20284;-75
2023/05/30 10:23:12;;;;;;;40.03;37.00;;;15.70;99.90;;;;;;4966676;28;20111;-74
2023/05/30 10:25:46;;;;;;;39.33;35.88;;;15.50;99.90;;;;;;4960675;28;20046;-75
2023/05/30 10:28:21;;;;;;;40.15;36.75;;;15.80;99.90;;;;;;4965028;28;20908;-74
2023/05/30 10:30:48;;;;;;;40.33;37.03;;;16.70;99.90;;;;;;4983559;28;20125;-75
2023/05/30 10:33:16;;;;;;;40.85;37.08;;;16.80;99.90;;;;;;4976289;28;20037;-74
2023/05/30 10:35:48;;;;;;;39.58;36.13;;;16.60;99.90;;;;;;4969874;28;20509;-75
2023/05/30 10:38:16;;;;;;;40.47;36.95;;;16.90;99.90;;;;;;4962436;28;20529;-75
2023/05/30 10:40:50;;;;;;;40.58;36.45;;;17.10;99.90;;;;;;4978786;28;20051;-75
2023/05/30 10:43:29;;;;;;;37.08;33.92;;;17.60;99.90;;;;;;4968049;28;20058;-76
2023/05/30 10:46:15;;;;;;;;;;;18.20;99.90;;;;;;4968395;28;20150;-76
2023/05/30 10:48:49;;;;;;;40.53;36.88;;;18.30;99.90;;;;;;4965719;28;20504;-75
2023/05/30 10:51:16;;;;;;;41.97;38.30;;;18.20;99.90;;;;;;4965186;28;20444;-75
2023/05/30 10:53:44;;;;;;;38.67;35.47;;;18.00;99.90;;;;;;4969735;28;20045;-75
2023/05/30 10:56:34;;;;;;;39.58;36.53;;;17.90;99.90;;;;;;4964792;28;20049;-75
2023/05/30 10:59:10;;;;;;;40.47;37.38;;;18.10;99.90;;;;;;4955567;28;20054;-75
2023/05/30 11:01:38;;;;;;;41.65;37.83;;;18.50;99.90;;;;;;4966824;28;20480;-75
2023/05/30 11:04:07;;;;;;;41.92;37.95;;;18.40;99.90;;;;;;4967672;28;20452;-75
2023/05/30 11:06:44;;;;;;;44.00;40.22;;;18.30;99.90;;;;;;4966265;28;20105;-75
2023/05/30 11:09:15;;;;;;;40.83;37.63;;;18.20;99.90;;;;;;4966323;28;20046;-74
2023/05/30 11:11:44;;;;;;;40.47;37.25;;;18.10;99.90;;;;;;4964821;28;20050;-75
2023/05/30 11:14:13;;;;;;;39.22;36.00;;;17.70;99.90;;;;;;4965174;28;20057;-74
2023/05/30 11:16:55;;;;;;;39.35;35.75;;;17.70;99.90;;;;;;4971252;28;20064;-75
2023/05/30 11:19:38;;;;;;;39.10;35.83;;;18.30;99.90;;;;;;4967932;28;20058;-75
2023/05/30 11:22:13;;;;;;;39.08;35.97;;;18.10;99.90;;;;;;4960715;28;20045;-74
2023/05/30 11:24:41;;;;;;;39.85;36.65;;;16.70;99.90;;;;;;4976949;28;20054;-75
2023/05/30 11:27:12;;;;;;;38.22;34.85;;;17.30;99.90;;;;;;4967993;28;20073;-75
2023/05/30 11:29:48;;;;;;;39.67;36.65;;;18.20;99.90;;;;;;4969612;28;20066;-75
2023/05/30 11:32:23;;;;;;;41.03;37.80;;;18.20;99.90;;;;;;4966240;28;20046;-76
2023/05/30 11:35:01;;;;;;;40.65;37.70;;;18.20;99.90;;;;;;4954225;28;20058;-76
2023/05/30 11:37:32;;;;;;;40.28;37.03;;;18.90;99.90;;;;;;4969171;28;20130;-72
2023/05/30 11:39:59;;;;;;;41.00;37.75;;;19.20;99.90;;;;;;4967157;28;20739;-75
2023/05/30 11:42:26;;;;;;;41.60;38.03;;;18.80;99.90;;;;;;4964690;28;20046;-74
2023/05/30 11:44:53;;;;;;;39.83;36.92;;;18.90;99.90;;;;;;4963417;28;20048;-73
2023/05/30 11:47:20;;;;;;;35.47;32.60;;;18.80;99.90;;;;;;4964311;28;20081;-74
2023/05/30 11:50:08;;;;;;;40.95;37.60;;;19.20;99.90;;;;;;4966594;28;20035;-73
2023/05/30 11:52:39;;;;;;;41.58;38.03;;;18.60;99.90;;;;;;4964566;28;20512;-74
2023/05/30 11:55:06;;;;;;;40.80;37.40;;;18.10;99.90;;;;;;4970913;28;20100;-73
2023/05/30 11:57:33;;;;;;;39.13;35.92;;;17.80;99.90;;;;;;4973379;28;20050;-73
2023/05/30 12:00:00;;;;;;;37.85;34.88;;;18.20;99.90;;;;;;4970649;28;20082;-74
2023/05/30 12:02:30;;;;;;;39.35;36.38;;;18.70;99.90;;;;;;4967162;28;20038;-74
2023/05/30 12:05:03;;;;;;;39.97;36.90;;;19.20;99.90;;;;;;4971764;28;20046;-74
2023/05/30 12:07:32;;;;;;;41.08;37.67;;;18.60;99.90;;;;;;4973599;28;20034;-74
2023/05/30 12:09:59;;;;;;;39.55;36.42;;;18.90;99.90;;;;;;4971175;28;20039;-73
2023/05/30 12:12:27;;;;;;;37.97;35.25;;;18.90;99.90;;;;;;4971912;28;21236;-74
2023/05/30 12:14:57;;;;;;;40.33;37.33;;;18.80;99.90;;;;;;4976711;28;20612;-74
2023/05/30 12:17:26;;;;;;;38.55;35.67;;;18.30;99.90;;;;;;4980413;28;21323;-75
2023/05/30 12:19:59;;;;;;;39.67;36.70;;;18.20;99.90;;;;;;4968771;28;20058;-75
2023/05/30 12:22:28;;;;;;;37.35;34.47;;;18.30;99.90;;;;;;4965127;28;21860;-75
2023/05/30 12:24:55;;;;;;;37.92;34.72;;;18.20;99.90;;;;;;4966283;28;20157;-74
2023/05/30 12:27:24;;;;;;;37.13;34.50;;;18.90;99.90;;;;;;4953821;28;20065;-75
2023/05/30 12:29:53;;;;;;;39.08;36.33;;;19.50;99.90;;;;;;4970324;28;20046;-75
2023/05/30 12:32:25;;;;;;;37.38;34.17;;;19.90;99.90;;;;;;4978377;28;20089;-77
2023/05/30 12:34:57;;;;;;;37.47;34.75;;;20.00;99.90;;;;;;4968659;28;20682;-76
2023/05/30 12:37:24;;;;;;;40.28;37.08;;;19.50;99.90;;;;;;4960114;28;20719;-75
2023/05/30 12:39:53;;;;;;;39.00;36.10;;;19.50;99.90;;;;;;4986462;28;20191;-79
2023/05/30 12:42:30;;;;;;;39.97;36.90;;;19.30;99.90;;;;;;4982218;28;21215;-78
2023/05/30 12:45:03;;;;;;;40.63;37.05;;;19.30;99.90;;;;;;4968873;28;20501;-78